createdAt,value
2022-10-18T00:03:52.442Z,20.90
2022-10-18T00:08:58.334Z,20.40
2022-10-18T00:14:04.409Z,19.40
2022-10-18T00:19:10.306Z,19.70
2022-10-18T00:24:19.842Z,21.60
2022-10-18T00:29:25.734Z,20.60
2022-10-18T00:34:31.690Z,19.80
2022-10-18T00:39:37.542Z,18.50
2022-10-18T00:45:18.823Z,17.80
2022-10-18T00:50:26.651Z,19.60
2022-10-18T00:55:34.156Z,20.20
2022-10-18T01:00:40.819Z,18.20
2022-10-18T01:05:48.606Z,18.30
2022-10-18T01:11:06.649Z,19.80
2022-10-18T01:16:19.790Z,19.30
2022-10-18T01:21:41.603Z,17.80
2022-10-18T01:27:05.782Z,17.50
2022-10-18T01:32:15.643Z,19.20
2022-10-18T01:37:23.968Z,19.50
2022-10-18T01:42:30.840Z,17.60
2022-10-18T01:47:37.387Z,16.70
2022-10-18T01:52:51.188Z,17.80
2022-10-18T01:58:04.655Z,18.10
2022-10-18T02:03:19.070Z,17.50
2022-10-18T02:08:28.899Z,15.80
2022-10-18T02:13:43.502Z,16.10
2022-10-18T02:18:55.383Z,18.20
2022-10-18T02:24:03.788Z,18.70
2022-10-18T02:29:10.422Z,18.20
2022-10-18T02:34:20.596Z,16.60
2022-10-18T02:39:30.568Z,16.90
2022-10-18T02:44:38.446Z,17.00
2022-10-18T02:49:44.451Z,19.70
2022-10-18T02:54:50.334Z,16.80
2022-10-18T02:59:56.178Z,11.60
2022-10-18T03:05:02.027Z,8.70
2022-10-18T03:10:09.398Z,8.40
2022-10-18T03:15:15.183Z,8.80
2022-10-18T03:20:21.115Z,9.10
2022-10-18T03:25:26.893Z,7.70
2022-10-18T03:30:33.047Z,7.60
2022-10-18T03:35:39.075Z,7.50
2022-10-18T03:40:45.069Z,8.00
2022-10-18T03:45:51.270Z,8.20
2022-10-18T03:50:57.128Z,6.60
2022-10-18T03:56:03.017Z,8.20
2022-10-18T04:01:08.863Z,8.30
2022-10-18T04:06:14.651Z,7.60
2022-10-18T04:11:20.442Z,6.60
2022-10-18T04:16:26.449Z,6.70
2022-10-18T04:21:32.357Z,7.10
2022-10-18T04:26:38.303Z,6.50
2022-10-18T04:31:44.433Z,6.60
2022-10-18T04:36:50.183Z,6.70
2022-10-18T04:41:56.080Z,6.80
2022-10-18T04:47:01.775Z,6.20
2022-10-18T04:52:07.774Z,6.70
2022-10-18T04:57:13.680Z,7.00
2022-10-18T05:02:19.443Z,7.60
2022-10-18T05:07:25.361Z,7.60
2022-10-18T05:12:31.681Z,6.60
2022-10-18T05:17:37.938Z,6.70
2022-10-18T05:22:44.069Z,6.40
2022-10-18T05:27:49.950Z,7.20
2022-10-18T05:32:55.711Z,7.60
2022-10-18T05:38:04.223Z,6.80
2022-10-18T05:43:10.498Z,7.40
2022-10-18T05:48:16.554Z,7.20
2022-10-18T05:53:36.259Z,7.40
2022-10-18T05:58:43.797Z,7.30
2022-10-18T06:03:50.628Z,6.60
2022-10-18T06:08:56.586Z,6.70
2022-10-18T06:14:02.947Z,7.00
2022-10-18T06:19:08.878Z,6.90
2022-10-18T06:24:14.824Z,6.50
2022-10-18T06:29:20.775Z,6.80
2022-10-18T06:34:26.664Z,6.30
2022-10-18T06:39:32.847Z,6.50
2022-10-18T06:44:38.667Z,6.80
2022-10-18T06:49:44.612Z,7.10
2022-10-18T06:54:50.699Z,7.30
2022-10-18T06:59:56.711Z,7.20
2022-10-18T07:05:02.748Z,7.10
2022-10-18T07:10:12.922Z,7.00
2022-10-18T07:15:22.550Z,6.60
2022-10-18T07:20:28.505Z,7.00
2022-10-18T07:25:34.185Z,6.80
2022-10-18T07:30:40.023Z,7.50
2022-10-18T07:35:46.303Z,6.90
2022-10-18T07:40:58.663Z,6.90
2022-10-18T07:46:06.027Z,8.30
2022-10-18T07:51:12.225Z,8.40
2022-10-18T07:56:21.326Z,16.50
2022-10-18T08:01:27.902Z,7.20
2022-10-18T08:06:33.814Z,7.50
2022-10-18T08:11:40.271Z,7.70
2022-10-18T08:16:46.083Z,8.30
2022-10-18T08:21:51.843Z,7.70
2022-10-18T08:26:57.514Z,7.90
2022-10-18T08:32:03.447Z,8.00
2022-10-18T08:37:09.358Z,8.00
2022-10-18T08:42:50.118Z,7.40
2022-10-18T08:47:57.875Z,7.40
2022-10-18T08:53:14.197Z,7.50
2022-10-18T08:58:22.497Z,7.20
2022-10-18T09:03:44.356Z,7.80
2022-10-18T09:09:06.776Z,9.30
2022-10-18T09:14:31.031Z,11.60
2022-10-18T09:25:17.397Z,8.40
2022-10-18T09:30:35.730Z,9.60
2022-10-18T09:35:48.947Z,12.70
2022-10-18T09:40:58.969Z,12.70
2022-10-18T09:46:07.083Z,9.80
2022-10-18T09:51:21.534Z,9.60
2022-10-18T09:56:30.595Z,9.20
2022-10-18T10:01:36.404Z,8.90
2022-10-18T10:06:51.620Z,9.70
2022-10-18T10:11:58.349Z,9.50
2022-10-18T10:17:06.977Z,9.70
2022-10-18T10:22:14.640Z,9.50
2022-10-18T10:27:24.895Z,9.90
2022-10-18T10:32:47.755Z,9.70
2022-10-18T10:37:56.371Z,10.50
2022-10-18T10:43:25.061Z,11.50
2022-10-18T10:48:34.600Z,10.80
2022-10-18T10:53:50.649Z,11.00
2022-10-18T10:58:58.832Z,11.20
2022-10-18T11:04:25.591Z,10.50
2022-10-18T11:09:49.268Z,11.50
2022-10-18T11:15:02.857Z,11.70
2022-10-18T11:20:28.274Z,11.40
2022-10-18T11:25:48.405Z,21.20
2022-10-18T11:31:07.622Z,33.50
2022-10-18T11:36:18.496Z,16.10
2022-10-18T11:41:36.122Z,17.70
2022-10-18T11:46:54.604Z,23.00
2022-10-18T11:52:10.649Z,22.80
2022-10-18T11:57:36.190Z,14.40
2022-10-18T12:03:01.161Z,12.40
2022-10-18T12:08:11.699Z,13.60
2022-10-18T12:13:23.302Z,16.40
2022-10-18T12:18:30.646Z,14.00
2022-10-18T12:23:43.016Z,15.30
2022-10-18T12:28:57.395Z,14.70
2022-10-18T12:34:10.869Z,13.00
2022-10-18T12:39:32.277Z,20.20
2022-10-18T12:44:49.187Z,25.60
2022-10-18T12:50:04.060Z,31.30
2022-10-18T12:55:36.911Z,22.70
2022-10-18T13:01:03.461Z,16.20
2022-10-18T13:06:09.313Z,15.20
2022-10-18T13:11:36.302Z,16.80
2022-10-18T13:16:47.267Z,19.20
2022-10-18T13:22:04.147Z,25.00
2022-10-18T13:27:42.371Z,20.80
2022-10-18T13:32:57.406Z,14.30
2022-10-18T13:38:05.159Z,12.20
2022-10-18T13:43:41.406Z,12.10
2022-10-18T13:48:52.240Z,13.30
2022-10-18T13:54:04.400Z,13.30
2022-10-18T13:59:28.747Z,13.00
2022-10-18T14:04:52.172Z,14.70
2022-10-18T14:10:03.392Z,15.90
2022-10-18T14:15:17.168Z,16.10
2022-10-18T14:20:29.908Z,14.70
2022-10-18T14:25:37.628Z,15.80
2022-10-18T14:30:55.738Z,17.50
2022-10-18T14:36:06.209Z,17.60
2022-10-18T14:41:20.598Z,17.80
2022-10-18T14:46:29.179Z,17.30
2022-10-18T14:51:39.381Z,16.60
2022-10-18T14:56:46.214Z,13.60
2022-10-18T15:01:58.632Z,10.30
2022-10-18T15:07:06.189Z,8.00
2022-10-18T15:12:16.097Z,3.80
2022-10-18T15:17:25.348Z,3.30
2022-10-18T15:22:33.069Z,3.70
2022-10-18T15:32:52.481Z,7.00
2022-10-18T15:38:03.432Z,4.70
2022-10-18T15:48:37.061Z,6.00
2022-10-18T15:53:53.444Z,6.40
2022-10-18T15:59:00.993Z,8.90
2022-10-18T16:04:16.197Z,9.40
2022-10-18T16:09:23.108Z,11.50
2022-10-18T16:14:30.158Z,10.40
2022-10-18T16:19:35.929Z,12.00
2022-10-18T16:24:41.669Z,12.40
2022-10-18T16:29:47.723Z,12.10
2022-10-18T16:34:53.348Z,10.90
2022-10-18T16:40:00.668Z,11.40
2022-10-18T16:45:07.872Z,11.20
2022-10-18T16:50:16.774Z,11.70
2022-10-18T16:55:24.945Z,13.40
2022-10-18T17:00:31.325Z,11.80
2022-10-18T17:05:37.062Z,14.10
2022-10-18T17:10:42.841Z,12.40
2022-10-18T17:15:50.222Z,12.20
2022-10-18T17:20:56.579Z,12.50
2022-10-18T17:26:26.642Z,10.40
2022-10-18T17:31:29.461Z,8.20
2022-10-18T17:36:35.338Z,5.00
2022-10-18T17:41:41.001Z,6.60
2022-10-18T17:46:46.862Z,5.30
2022-10-18T17:51:52.590Z,4.80
2022-10-18T17:56:58.216Z,3.80
2022-10-18T18:02:04.016Z,3.90
2022-10-18T18:07:09.779Z,3.40
2022-10-18T18:12:15.449Z,3.20
2022-10-18T18:17:28.715Z,3.50
2022-10-18T18:22:42.756Z,3.20
2022-10-18T18:27:49.015Z,3.20
2022-10-18T18:32:54.924Z,4.80
2022-10-18T18:38:00.956Z,6.10
2022-10-18T18:43:22.808Z,4.50
2022-10-18T18:48:31.487Z,3.90
2022-10-18T18:53:39.177Z,4.40
2022-10-18T18:58:45.855Z,5.50
2022-10-18T19:03:53.406Z,5.70
2022-10-18T19:09:03.055Z,6.80
2022-10-18T19:14:09.528Z,5.60
2022-10-18T19:19:17.133Z,4.80
2022-10-18T19:24:24.326Z,5.00
2022-10-18T19:29:31.488Z,4.40
2022-10-18T19:34:37.289Z,3.70
2022-10-18T19:39:43.232Z,3.80
2022-10-18T19:44:49.175Z,5.60
2022-10-18T19:49:55.514Z,4.80
2022-10-18T19:55:01.284Z,4.60
2022-10-18T20:00:11.319Z,4.50
2022-10-18T20:05:17.862Z,4.90
2022-10-18T20:10:23.693Z,5.30
2022-10-18T20:15:29.469Z,5.60
2022-10-18T20:20:37.474Z,5.70
2022-10-18T20:25:43.521Z,4.70
2022-10-18T20:30:49.349Z,4.20
2022-10-18T20:35:55.111Z,5.00
2022-10-18T20:41:06.450Z,4.80
2022-10-18T20:51:17.562Z,4.50
2022-10-18T20:56:26.511Z,4.20
2022-10-18T21:01:34.076Z,4.60
2022-10-18T21:06:41.685Z,4.50
2022-10-18T21:11:49.734Z,4.80
2022-10-18T21:16:55.644Z,4.50
2022-10-18T21:22:01.640Z,4.50
2022-10-18T21:27:07.459Z,4.80
2022-10-18T21:32:13.155Z,5.60
2022-10-18T21:37:18.964Z,6.00
2022-10-18T21:42:24.834Z,6.10
2022-10-18T21:47:30.607Z,7.50
2022-10-18T21:52:36.419Z,8.20
2022-10-18T21:57:42.288Z,8.20
2022-10-18T22:02:48.172Z,8.40
2022-10-18T22:07:53.921Z,9.40
2022-10-18T22:13:00.255Z,10.40
2022-10-18T22:18:06.202Z,9.50
2022-10-18T22:23:12.942Z,9.40
2022-10-18T22:28:18.730Z,8.90
2022-10-18T22:33:24.640Z,10.10
2022-10-18T22:38:35.051Z,10.10
2022-10-18T22:43:41.045Z,10.20
2022-10-18T22:48:47.304Z,10.40
2022-10-18T22:53:53.321Z,9.80
2022-10-18T22:59:14.057Z,11.00
2022-10-18T23:04:19.853Z,11.40
2022-10-18T23:09:25.791Z,10.70
2022-10-18T23:14:31.662Z,10.90
2022-10-18T23:19:37.439Z,11.20
2022-10-18T23:24:44.602Z,12.20
2022-10-18T23:29:50.371Z,12.30
2022-10-18T23:34:56.047Z,11.60
2022-10-18T23:40:01.982Z,11.70
2022-10-18T23:45:10.000Z,12.30
2022-10-18T23:50:16.079Z,12.40
2022-10-18T23:55:21.901Z,11.00
